createdAt,value
2018-04-02T00:00:54.411Z,99130.81
2018-04-02T00:03:23.923Z,99134.13
2018-04-02T00:05:53.225Z,99138.84
2018-04-02T00:08:22.375Z,99133.86
2018-04-02T00:10:51.320Z,99138.58
2018-04-02T00:13:20.560Z,99140.05
2018-04-02T00:15:49.775Z,99139.21
2018-04-02T00:18:19.049Z,99143.02
2018-04-02T00:20:48.238Z,99152.12
2018-04-02T00:23:17.469Z,99146.81
2018-04-02T00:25:46.609Z,99155.93
2018-04-02T00:28:15.571Z,99156.59
2018-04-02T00:30:44.244Z,99165.09
2018-04-02T00:33:13.547Z,99164.94
2018-04-02T00:35:42.665Z,99169.31
2018-04-02T00:38:11.946Z,99177.42
2018-04-02T00:40:41.212Z,99174.87
2018-04-02T00:43:11.454Z,99175.29
2018-04-02T00:45:40.830Z,99174.66
2018-04-02T00:48:09.759Z,99173.30
2018-04-02T00:50:38.975Z,99174.41
2018-04-02T00:53:08.084Z,99181.20
2018-04-02T00:55:37.099Z,99178.00
2018-04-02T00:58:06.593Z,99190.12
2018-04-02T01:00:35.986Z,99192.26
2018-04-02T01:03:05.299Z,99194.66
2018-04-02T01:05:34.522Z,99196.55
2018-04-02T01:08:03.707Z,99200.28
2018-04-02T01:10:33.143Z,99201.51
2018-04-02T01:13:02.365Z,99201.23
2018-04-02T01:15:31.528Z,99208.14
2018-04-02T01:18:00.893Z,99209.89
2018-04-02T01:20:30.359Z,99214.92
2018-04-02T01:22:59.414Z,99214.50
2018-04-02T01:25:28.973Z,99226.58
2018-04-02T01:27:58.317Z,99230.06
2018-04-02T01:30:27.191Z,99238.64
2018-04-02T01:32:56.571Z,99245.86
2018-04-02T01:35:25.767Z,99243.85
2018-04-02T01:37:55.331Z,99247.97
2018-04-02T01:40:24.521Z,99249.65
2018-04-02T01:42:53.736Z,99253.50
2018-04-02T01:45:23.091Z,99256.56
2018-04-02T01:47:52.319Z,99260.64
2018-04-02T01:50:21.709Z,99260.70
2018-04-02T01:52:50.839Z,99267.54
2018-04-02T01:55:20.133Z,99266.08
2018-04-02T01:57:49.423Z,99260.16
2018-04-02T02:00:18.461Z,99269.02
2018-04-02T02:02:47.522Z,99274.67
2018-04-02T02:05:16.570Z,99282.26
2018-04-02T02:07:45.954Z,99283.73
2018-04-02T02:10:14.886Z,99280.03
2018-04-02T02:12:44.473Z,99280.97
2018-04-02T02:15:16.820Z,99290.55
2018-04-02T02:17:46.103Z,99285.57
2018-04-02T02:20:15.554Z,99286.02
2018-04-02T02:22:45.152Z,99291.69
2018-04-02T02:25:14.177Z,99291.51
2018-04-02T02:27:43.159Z,99298.39
2018-04-02T02:30:12.478Z,99299.54
2018-04-02T02:32:41.741Z,99299.07
2018-04-02T02:35:10.948Z,99302.20
2018-04-02T02:37:40.095Z,99306.22
2018-04-02T02:40:09.452Z,99307.98
2018-04-02T02:42:38.855Z,99306.59
2018-04-02T02:45:08.291Z,99306.14
2018-04-02T02:47:37.748Z,99312.03
2018-04-02T02:50:06.981Z,99312.43
2018-04-02T02:52:36.289Z,99317.70
2018-04-02T02:55:05.386Z,99322.59
2018-04-02T02:57:34.596Z,99320.65
2018-04-02T03:00:03.723Z,99327.11
2018-04-02T03:02:33.131Z,99333.34
2018-04-02T03:05:02.326Z,99325.64
2018-04-02T03:07:31.965Z,99328.31
2018-04-02T03:10:01.157Z,99325.64
2018-04-02T03:12:30.240Z,99331.83
2018-04-02T03:14:59.519Z,99332.77
2018-04-02T03:17:28.980Z,99330.20
2018-04-02T03:19:58.353Z,99331.64
2018-04-02T03:22:27.339Z,99333.81
2018-04-02T03:24:57.012Z,99337.50
2018-04-02T03:27:26.333Z,99336.53
2018-04-02T03:29:55.375Z,99336.94
2018-04-02T03:32:24.815Z,99340.62
2018-04-02T03:34:54.046Z,99344.08
2018-04-02T03:37:23.066Z,99351.71
2018-04-02T03:39:52.693Z,99352.45
2018-04-02T03:42:21.760Z,99355.34
2018-04-02T03:44:51.073Z,99358.94
2018-04-02T03:47:20.297Z,99357.34
2018-04-02T03:49:49.941Z,99357.45
2018-04-02T03:52:19.252Z,99363.20
2018-04-02T03:54:48.730Z,99362.05
2018-04-02T03:57:18.153Z,99366.31
2018-04-02T03:59:47.787Z,99366.72
2018-04-02T04:02:16.785Z,99369.37
2018-04-02T04:04:45.900Z,99367.34
2018-04-02T04:07:15.188Z,99374.57
2018-04-02T04:09:44.364Z,99380.38
2018-04-02T04:12:13.139Z,99375.44
2018-04-02T04:14:42.296Z,99376.44
2018-04-02T04:17:12.477Z,99374.97
2018-04-02T04:19:41.832Z,99372.55
2018-04-02T04:22:11.229Z,99379.50
2018-04-02T04:24:45.842Z,99371.20
2018-04-02T04:27:15.923Z,99370.10
2018-04-02T04:29:49.996Z,99373.53
2018-04-02T04:32:19.051Z,99372.45
2018-04-02T04:34:48.190Z,99377.00
2018-04-02T04:37:17.664Z,99376.33
2018-04-02T04:39:46.701Z,99372.44
2018-04-02T04:42:15.642Z,99375.19
2018-04-02T04:44:45.004Z,99379.89
2018-04-02T04:47:14.310Z,99377.87
2018-04-02T04:49:43.309Z,99372.28
2018-04-02T04:52:12.252Z,99365.77
2018-04-02T04:54:41.506Z,99365.12
2018-04-02T04:57:10.473Z,99369.08
2018-04-02T04:59:39.456Z,99371.78
2018-04-02T05:02:08.368Z,99370.83
2018-04-02T05:04:37.471Z,99373.53
2018-04-02T05:07:06.334Z,99376.87
2018-04-02T05:09:35.355Z,99371.69
2018-04-02T05:12:04.671Z,99370.41
2018-04-02T05:14:33.854Z,99372.72
2018-04-02T05:17:04.361Z,99371.45
2018-04-02T05:19:34.023Z,99375.00
2018-04-02T05:22:04.005Z,99364.03
2018-04-02T05:24:34.499Z,99365.85
2018-04-02T05:27:03.520Z,99365.69
2018-04-02T05:29:33.007Z,99357.56
2018-04-02T05:32:02.334Z,99352.38
2018-04-02T05:34:31.731Z,99358.31
2018-04-02T05:37:00.918Z,99350.86
2018-04-02T05:39:30.608Z,99351.58
2018-04-02T05:41:59.701Z,99351.67
2018-04-02T05:44:30.729Z,99350.58
2018-04-02T05:46:59.918Z,99347.17
2018-04-02T05:49:29.096Z,99347.88
2018-04-02T05:51:59.073Z,99342.07
2018-04-02T05:54:28.159Z,99342.19
2018-04-02T05:56:57.364Z,99335.53
2018-04-02T05:59:26.743Z,99335.34
2018-04-02T06:01:56.051Z,99326.17
2018-04-02T06:04:25.273Z,99327.44
2018-04-02T06:06:55.940Z,99329.51
2018-04-02T06:09:26.963Z,99325.51
2018-04-02T06:11:58.286Z,99325.30
2018-04-02T06:14:33.049Z,99319.00
2018-04-02T06:17:04.436Z,99319.88
2018-04-02T06:19:34.090Z,99315.64
2018-04-02T06:22:05.034Z,99309.40
2018-04-02T06:24:34.588Z,99302.75
2018-04-02T06:27:04.354Z,99305.47
2018-04-02T06:29:33.585Z,99308.42
2018-04-02T06:32:03.377Z,99302.55
2018-04-02T06:34:32.690Z,99297.84
2018-04-02T06:37:02.279Z,99291.71
2018-04-02T06:39:31.307Z,99290.08
2018-04-02T06:42:00.392Z,99287.02
2018-04-02T06:44:29.303Z,99279.36
2018-04-02T06:46:58.484Z,99272.51
2018-04-02T06:49:28.166Z,99269.75
2018-04-02T06:51:57.294Z,99257.37
2018-04-02T06:54:26.716Z,99256.53
2018-04-02T06:56:56.137Z,99253.94
2018-04-02T06:59:25.412Z,99246.35
2018-04-02T07:01:54.885Z,99248.82
2018-04-02T07:04:30.729Z,99239.00
2018-04-02T07:07:00.327Z,99233.00
2018-04-02T07:09:29.724Z,99225.27
2018-04-02T07:11:58.507Z,99216.81
2018-04-02T07:14:27.594Z,99210.27
2018-04-02T07:16:56.523Z,99209.30
2018-04-02T07:19:25.487Z,99198.82
2018-04-02T07:21:54.690Z,99193.84
2018-04-02T07:24:23.914Z,99189.71
2018-04-02T07:26:52.959Z,99181.62
2018-04-02T07:29:21.786Z,99179.20
2018-04-02T07:31:50.785Z,99164.89
2018-04-02T07:34:20.114Z,99163.85
2018-04-02T07:36:49.485Z,99160.58
2018-04-02T07:39:18.399Z,99153.74
2018-04-02T07:41:47.892Z,99147.64
2018-04-02T07:44:16.835Z,99147.73
2018-04-02T07:46:46.186Z,99139.22
2018-04-02T07:49:15.757Z,99138.80
2018-04-02T07:51:45.069Z,99132.58
2018-04-02T07:54:13.815Z,99126.19
2018-04-02T07:56:43.015Z,99120.51
2018-04-02T07:59:12.282Z,99115.86
2018-04-02T08:01:41.426Z,99101.11
2018-04-02T08:04:10.898Z,99104.10
2018-04-02T08:06:40.142Z,99094.59
2018-04-02T08:09:09.324Z,99093.13
2018-04-02T08:11:38.780Z,99077.50
2018-04-02T08:14:08.396Z,99073.59
2018-04-02T08:16:39.454Z,99076.58
2018-04-02T08:19:09.471Z,99070.84
2018-04-02T08:21:41.616Z,99064.80
2018-04-02T08:24:13.040Z,99058.95
2018-04-02T08:26:47.242Z,99055.19
2018-04-02T08:29:16.995Z,99049.93
2018-04-02T08:31:46.546Z,99046.56
2018-04-02T08:34:15.841Z,99042.02
2018-04-02T08:36:45.963Z,99035.70
2018-04-02T08:39:15.148Z,99030.52
2018-04-02T08:41:44.539Z,99026.11
2018-04-02T08:44:14.227Z,99021.22
2018-04-02T08:46:43.533Z,99014.62
2018-04-02T08:49:12.922Z,99011.30
2018-04-02T08:51:42.557Z,99011.44
2018-04-02T08:54:12.531Z,99004.50
2018-04-02T08:56:43.640Z,98995.84
2018-04-02T08:59:13.099Z,98995.50
2018-04-02T09:01:43.499Z,98995.30
2018-04-02T09:04:14.141Z,98989.42
2018-04-02T09:06:46.628Z,98985.38
2018-04-02T09:09:15.790Z,98978.47
2018-04-02T09:11:46.028Z,98975.73
2018-04-02T09:14:15.875Z,98973.24
2018-04-02T09:16:46.316Z,98967.58
2018-04-02T09:19:16.318Z,98965.20
2018-04-02T09:21:48.931Z,98958.22
2018-04-02T09:24:21.446Z,98952.88
2018-04-02T09:26:50.938Z,98960.17
2018-04-02T09:29:20.314Z,98958.39
2018-04-02T09:31:50.139Z,98947.64
2018-04-02T09:34:19.446Z,98934.94
2018-04-02T09:36:48.584Z,98941.85
2018-04-02T09:39:17.916Z,98938.53
2018-04-02T09:41:47.300Z,98935.28
2018-04-02T09:44:18.695Z,98931.72
2018-04-02T09:46:49.640Z,98927.58
2018-04-02T09:49:20.886Z,98921.37
2018-04-02T09:54:30.760Z,98915.65
2018-04-02T09:57:00.968Z,98906.33
2018-04-02T09:59:30.270Z,98906.95
2018-04-02T10:01:59.406Z,98901.17
2018-04-02T10:04:33.045Z,98896.16
2018-04-02T10:07:02.209Z,98900.00
2018-04-02T10:09:31.937Z,98897.49
2018-04-02T10:12:01.115Z,98887.67
2018-04-02T10:14:31.443Z,98881.37
2018-04-02T10:17:00.733Z,98881.27
2018-04-02T10:19:30.372Z,98878.69
2018-04-02T10:21:59.699Z,98875.57
2018-04-02T10:24:29.052Z,98876.31
2018-04-02T10:26:57.912Z,98869.48
2018-04-02T10:29:26.641Z,98870.53
2018-04-02T10:31:56.844Z,98865.87
2018-04-02T10:34:26.579Z,98871.44
2018-04-02T10:36:56.309Z,98866.78
2018-04-02T10:39:25.616Z,98858.53
2018-04-02T10:41:54.780Z,98858.10
2018-04-02T10:44:24.213Z,98861.98
2018-04-02T10:46:53.385Z,98862.23
2018-04-02T10:49:22.715Z,98857.70
2018-04-02T10:51:54.513Z,98862.45
2018-04-02T10:54:23.962Z,98858.92
2018-04-02T10:56:53.167Z,98858.13
2018-04-02T10:59:23.723Z,98849.98
2018-04-02T11:01:58.923Z,98857.39
2018-04-02T11:04:29.945Z,98856.33
2018-04-02T11:07:02.706Z,98847.88
2018-04-02T11:09:33.788Z,98847.25
2018-04-02T11:12:06.218Z,98847.45
2018-04-02T11:14:35.291Z,98841.76
2018-04-02T11:17:04.576Z,98839.48
2018-04-02T11:19:34.102Z,98835.77
2018-04-02T11:22:03.409Z,98832.42
2018-04-02T11:24:32.596Z,98825.25
2018-04-02T11:27:01.966Z,98830.50
2018-04-02T11:29:31.186Z,98833.89
2018-04-02T11:32:00.632Z,98829.20
2018-04-02T11:34:29.692Z,98835.00
2018-04-02T11:36:58.915Z,98837.23
2018-04-02T11:39:28.178Z,98834.63
2018-04-02T11:41:57.454Z,98833.60
2018-04-02T11:44:26.544Z,98840.89
2018-04-02T11:46:55.655Z,98843.98
2018-04-02T11:49:27.614Z,98841.05
2018-04-02T11:51:59.216Z,98843.70
2018-04-02T11:54:30.448Z,98843.95
2018-04-02T11:57:00.382Z,98851.35
2018-04-02T11:59:33.800Z,98852.66
2018-04-02T12:02:03.169Z,98853.96
2018-04-02T12:04:32.246Z,98852.39
2018-04-02T12:07:01.587Z,98853.19
2018-04-02T12:09:31.139Z,98856.50
2018-04-02T12:12:01.880Z,98861.09
2018-04-02T12:14:31.135Z,98853.64
2018-04-02T12:17:00.628Z,98854.02
2018-04-02T12:19:29.679Z,98851.49
2018-04-02T12:21:59.438Z,98857.67
2018-04-02T12:24:28.915Z,98870.29
2018-04-02T12:26:58.763Z,98873.23
2018-04-02T12:29:28.769Z,98865.89
2018-04-02T12:31:58.996Z,98867.35
2018-04-02T12:34:28.633Z,98865.23
2018-04-02T12:36:58.962Z,98874.05
2018-04-02T12:39:28.121Z,98871.41
2018-04-02T12:41:57.629Z,98878.55
2018-04-02T12:44:27.151Z,98877.58
2018-04-02T12:46:57.038Z,98886.70
2018-04-02T12:49:31.869Z,98883.89
2018-04-02T12:52:01.587Z,98888.32
2018-04-02T12:54:30.907Z,98888.22
2018-04-02T12:57:00.078Z,98900.06
2018-04-02T12:59:30.806Z,98894.08
2018-04-02T13:01:59.927Z,98896.55
2018-04-02T13:04:29.279Z,98898.99
2018-04-02T13:06:58.699Z,98896.23
2018-04-02T13:09:28.086Z,98904.33
2018-04-02T13:11:57.533Z,98903.63
2018-04-02T13:14:26.815Z,98908.63
2018-04-02T13:16:56.618Z,98912.73
2018-04-02T13:19:26.664Z,98909.81
2018-04-02T13:21:57.207Z,98921.02
2018-04-02T13:24:26.541Z,98920.01
2018-04-02T13:26:56.016Z,98917.71
2018-04-02T13:29:25.915Z,98916.84
2018-04-02T13:31:55.573Z,98930.71
2018-04-02T13:34:24.534Z,98926.39
2018-04-02T13:36:54.542Z,98930.96
2018-04-02T13:39:23.796Z,98929.80
2018-04-02T13:41:52.857Z,98934.28
2018-04-02T13:44:22.102Z,98937.77
2018-04-02T13:46:51.611Z,98940.96
2018-04-02T13:49:20.505Z,98941.09
2018-04-02T13:51:49.435Z,98943.30
2018-04-02T13:54:18.677Z,98941.55
2018-04-02T13:56:47.605Z,98945.24
2018-04-02T13:59:16.516Z,98943.73
2018-04-02T14:01:45.834Z,98950.84
2018-04-02T14:04:15.042Z,98954.89
2018-04-02T14:06:44.438Z,98955.33
2018-04-02T14:09:13.912Z,98965.13
2018-04-02T14:11:43.265Z,98967.02
2018-04-02T14:14:12.520Z,98971.78
2018-04-02T14:16:41.522Z,98974.98
2018-04-02T14:19:10.641Z,98973.27
2018-04-02T14:21:40.103Z,98976.09
2018-04-02T14:24:09.437Z,98975.17
2018-04-02T14:26:38.606Z,98977.38
2018-04-02T14:29:08.144Z,98975.58
2018-04-02T14:31:37.548Z,98982.20
2018-04-02T14:34:06.522Z,98984.70
2018-04-02T14:36:35.830Z,98979.98
2018-04-02T14:39:05.339Z,98992.38
2018-04-02T14:41:34.496Z,98986.30
2018-04-02T14:44:04.289Z,98995.48
2018-04-02T14:46:33.771Z,98997.66
2018-04-02T14:49:02.763Z,99000.88
2018-04-02T14:51:32.650Z,99005.81
2018-04-02T14:54:02.197Z,99004.66
2018-04-02T14:56:31.732Z,99008.38
2018-04-02T14:59:00.967Z,99005.58
2018-04-02T15:01:30.204Z,99006.66
2018-04-02T15:03:59.135Z,99009.50
2018-04-02T15:06:28.679Z,99014.69
2018-04-02T15:08:57.729Z,99019.27
2018-04-02T15:11:27.134Z,99020.72
2018-04-02T15:13:56.377Z,99026.63
2018-04-02T15:16:26.014Z,99033.79
2018-04-02T15:18:57.023Z,99031.47
2018-04-02T15:21:26.376Z,99031.55
2018-04-02T15:23:55.356Z,99038.20
2018-04-02T15:26:24.851Z,99038.22
2018-04-02T15:28:53.990Z,99035.80
2018-04-02T15:31:23.962Z,99038.97
2018-04-02T15:33:52.734Z,99041.78
2018-04-02T15:36:21.415Z,99040.64
2018-04-02T15:38:51.789Z,99043.67
2018-04-02T15:41:20.877Z,99036.36
2018-04-02T15:43:49.944Z,99032.77
2018-04-02T15:46:19.263Z,99034.45
2018-04-02T15:48:48.188Z,99039.11
2018-04-02T15:51:17.383Z,99034.45
2018-04-02T15:53:46.493Z,99035.51
2018-04-02T15:56:15.538Z,99042.18
2018-04-02T15:58:45.014Z,99042.92
2018-04-02T16:01:14.300Z,99055.59
2018-04-02T16:03:43.627Z,99048.65
2018-04-02T16:06:13.087Z,99048.23
2018-04-02T16:08:42.286Z,99048.74
